sensor_id;sensor_type;location;lat;lon;timestamp;P1;durP1;ratioP1;P2;durP2;ratioP2
19207;SDS011;9737;59.466;18.036;2024-03-17T00:01:59;2.65;;;2.20;;
19207;SDS011;9737;59.466;18.036;2024-03-17T00:04:25;2.22;;;1.90;;
19207;SDS011;9737;59.466;18.036;2024-03-17T00:06:51;3.63;;;1.85;;
19207;SDS011;9737;59.466;18.036;2024-03-17T00:09:17;1.70;;;1.60;;
19207;SDS011;9737;59.466;18.036;2024-03-17T00:11:44;2.17;;;2.08;;
19207;SDS011;9737;59.466;18.036;2024-03-17T00:14:11;2.20;;;2.05;;
19207;SDS011;9737;59.466;18.036;2024-03-17T00:16:38;2.20;;;2.00;;
19207;SDS011;9737;59.466;18.036;2024-03-17T00:19:04;2.38;;;2.17;;
19207;SDS011;9737;59.466;18.036;2024-03-17T00:21:31;4.10;;;2.67;;
19207;SDS011;9737;59.466;18.036;2024-03-17T00:23:57;4.82;;;3.35;;
19207;SDS011;9737;59.466;18.036;2024-03-17T00:26:23;8.38;;;3.35;;
19207;SDS011;9737;59.466;18.036;2024-03-17T00:28:50;2.40;;;2.20;;
19207;SDS011;9737;59.466;18.036;2024-03-17T00:31:16;6.05;;;3.65;;
19207;SDS011;9737;59.466;18.036;2024-03-17T00:33:45;7.47;;;3.22;;
19207;SDS011;9737;59.466;18.036;2024-03-17T00:36:11;5.82;;;3.55;;
19207;SDS011;9737;59.466;18.036;2024-03-17T00:38:38;3.80;;;2.25;;
19207;SDS011;9737;59.466;18.036;2024-03-17T00:41:04;5.60;;;2.63;;
19207;SDS011;9737;59.466;18.036;2024-03-17T00:43:31;2.78;;;2.10;;
19207;SDS011;9737;59.466;18.036;2024-03-17T00:45:57;4.75;;;2.70;;
19207;SDS011;9737;59.466;18.036;2024-03-17T00:48:26;2.03;;;1.92;;
19207;SDS011;9737;59.466;18.036;2024-03-17T00:50:58;1.90;;;1.80;;
19207;SDS011;9737;59.466;18.036;2024-03-17T00:53:24;4.13;;;2.40;;
19207;SDS011;9737;59.466;18.036;2024-03-17T00:55:51;2.03;;;1.92;;
19207;SDS011;9737;59.466;18.036;2024-03-17T00:58:31;2.45;;;1.98;;
19207;SDS011;9737;59.466;18.036;2024-03-17T01:00:57;4.45;;;2.10;;
19207;SDS011;9737;59.466;18.036;2024-03-17T01:03:24;2.78;;;2.20;;
19207;SDS011;9737;59.466;18.036;2024-03-17T01:05:50;7.32;;;1.50;;
19207;SDS011;9737;59.466;18.036;2024-03-17T01:08:21;1.67;;;1.58;;
19207;SDS011;9737;59.466;18.036;2024-03-17T01:10:50;1.88;;;1.65;;
19207;SDS011;9737;59.466;18.036;2024-03-17T01:13:17;1.65;;;1.55;;
19207;SDS011;9737;59.466;18.036;2024-03-17T01:15:43;1.80;;;1.60;;
19207;SDS011;9737;59.466;18.036;2024-03-17T01:18:10;5.43;;;1.70;;
19207;SDS011;9737;59.466;18.036;2024-03-17T01:20:42;2.75;;;2.25;;
19207;SDS011;9737;59.466;18.036;2024-03-17T01:23:08;1.83;;;1.70;;
19207;SDS011;9737;59.466;18.036;2024-03-17T01:25:36;2.13;;;1.90;;
19207;SDS011;9737;59.466;18.036;2024-03-17T01:28:02;3.45;;;2.60;;
19207;SDS011;9737;59.466;18.036;2024-03-17T01:30:29;2.03;;;1.75;;
19207;SDS011;9737;59.466;18.036;2024-03-17T01:32:56;2.53;;;1.70;;
19207;SDS011;9737;59.466;18.036;2024-03-17T01:35:22;1.90;;;1.70;;
19207;SDS011;9737;59.466;18.036;2024-03-17T01:37:48;2.08;;;1.88;;
19207;SDS011;9737;59.466;18.036;2024-03-17T01:40:14;2.65;;;1.73;;
19207;SDS011;9737;59.466;18.036;2024-03-17T01:42:42;2.08;;;1.98;;
19207;SDS011;9737;59.466;18.036;2024-03-17T01:45:20;2.63;;;1.90;;
19207;SDS011;9737;59.466;18.036;2024-03-17T01:47:52;2.70;;;2.50;;
19207;SDS011;9737;59.466;18.036;2024-03-17T01:50:19;1.80;;;1.70;;
19207;SDS011;9737;59.466;18.036;2024-03-17T01:52:46;3.45;;;2.50;;
19207;SDS011;9737;59.466;18.036;2024-03-17T01:55:13;2.72;;;2.25;;
19207;SDS011;9737;59.466;18.036;2024-03-17T01:57:40;2.47;;;1.98;;
19207;SDS011;9737;59.466;18.036;2024-03-17T02:00:08;2.20;;;2.10;;
19207;SDS011;9737;59.466;18.036;2024-03-17T02:02:34;2.28;;;2.10;;
19207;SDS011;9737;59.466;18.036;2024-03-17T02:05:01;3.03;;;2.30;;
19207;SDS011;9737;59.466;18.036;2024-03-17T02:07:27;2.35;;;1.95;;
19207;SDS011;9737;59.466;18.036;2024-03-17T02:09:56;1.85;;;1.75;;
19207;SDS011;9737;59.466;18.036;2024-03-17T02:12:22;1.80;;;1.70;;
19207;SDS011;9737;59.466;18.036;2024-03-17T02:14:49;2.25;;;2.05;;
19207;SDS011;9737;59.466;18.036;2024-03-17T02:17:16;1.80;;;1.70;;
19207;SDS011;9737;59.466;18.036;2024-03-17T02:19:42;2.45;;;1.70;;
19207;SDS011;9737;59.466;18.036;2024-03-17T02:22:12;1.75;;;1.65;;
19207;SDS011;9737;59.466;18.036;2024-03-17T02:24:39;1.60;;;1.50;;
19207;SDS011;9737;59.466;18.036;2024-03-17T02:27:05;3.10;;;1.85;;
19207;SDS011;9737;59.466;18.036;2024-03-17T02:29:31;2.55;;;1.95;;
19207;SDS011;9737;59.466;18.036;2024-03-17T02:31:58;4.40;;;3.08;;
19207;SDS011;9737;59.466;18.036;2024-03-17T02:34:24;2.08;;;1.88;;
19207;SDS011;9737;59.466;18.036;2024-03-17T02:36:50;4.03;;;2.38;;
19207;SDS011;9737;59.466;18.036;2024-03-17T02:39:18;4.13;;;2.63;;
19207;SDS011;9737;59.466;18.036;2024-03-17T02:41:44;4.25;;;2.78;;
19207;SDS011;9737;59.466;18.036;2024-03-17T02:44:11;5.57;;;2.95;;
19207;SDS011;9737;59.466;18.036;2024-03-17T02:46:37;2.28;;;2.08;;
19207;SDS011;9737;59.466;18.036;2024-03-17T02:49:03;2.22;;;2.10;;
19207;SDS011;9737;59.466;18.036;2024-03-17T02:51:30;2.63;;;2.42;;
19207;SDS011;9737;59.466;18.036;2024-03-17T02:53:56;2.72;;;2.50;;
19207;SDS011;9737;59.466;18.036;2024-03-17T02:56:24;9.38;;;3.13;;
19207;SDS011;9737;59.466;18.036;2024-03-17T02:58:50;3.08;;;2.20;;
19207;SDS011;9737;59.466;18.036;2024-03-17T03:01:16;2.03;;;1.73;;
19207;SDS011;9737;59.466;18.036;2024-03-17T03:03:42;5.22;;;2.50;;
19207;SDS011;9737;59.466;18.036;2024-03-17T03:06:09;3.50;;;2.20;;
19207;SDS011;9737;59.466;18.036;2024-03-17T03:08:35;2.33;;;2.08;;
19207;SDS011;9737;59.466;18.036;2024-03-17T03:11:02;2.42;;;2.22;;
19207;SDS011;9737;59.466;18.036;2024-03-17T03:13:31;2.20;;;1.90;;
19207;SDS011;9737;59.466;18.036;2024-03-17T03:15:57;2.45;;;2.10;;
19207;SDS011;9737;59.466;18.036;2024-03-17T03:18:23;2.33;;;2.13;;
19207;SDS011;9737;59.466;18.036;2024-03-17T03:20:50;3.00;;;2.63;;
19207;SDS011;9737;59.466;18.036;2024-03-17T03:23:16;3.90;;;2.65;;
19207;SDS011;9737;59.466;18.036;2024-03-17T03:25:43;1.88;;;1.77;;
19207;SDS011;9737;59.466;18.036;2024-03-17T03:28:09;3.50;;;2.22;;
19207;SDS011;9737;59.466;18.036;2024-03-17T03:30:37;3.38;;;1.90;;
19207;SDS011;9737;59.466;18.036;2024-03-17T03:33:04;2.63;;;1.83;;
19207;SDS011;9737;59.466;18.036;2024-03-17T03:35:30;1.80;;;1.70;;
19207;SDS011;9737;59.466;18.036;2024-03-17T03:37:56;6.55;;;1.88;;
19207;SDS011;9737;59.466;18.036;2024-03-17T03:40:23;2.58;;;2.10;;
19207;SDS011;9737;59.466;18.036;2024-03-17T03:42:49;2.03;;;1.85;;
19207;SDS011;9737;59.466;18.036;2024-03-17T03:45:15;4.85;;;2.08;;
19207;SDS011;9737;59.466;18.036;2024-03-17T03:47:43;7.93;;;2.22;;
19207;SDS011;9737;59.466;18.036;2024-03-17T03:50:09;3.05;;;1.92;;
19207;SDS011;9737;59.466;18.036;2024-03-17T03:52:36;4.43;;;2.00;;
19207;SDS011;9737;59.466;18.036;2024-03-17T03:55:03;5.40;;;1.60;;
19207;SDS011;9737;59.466;18.036;2024-03-17T03:57:30;4.82;;;2.00;;
19207;SDS011;9737;59.466;18.036;2024-03-17T03:59:56;1.95;;;1.85;;
19207;SDS011;9737;59.466;18.036;2024-03-17T04:02:22;3.65;;;1.90;;
19207;SDS011;9737;59.466;18.036;2024-03-17T04:04:50;4.15;;;1.88;;
19207;SDS011;9737;59.466;18.036;2024-03-17T04:07:16;2.63;;;1.85;;
19207;SDS011;9737;59.466;18.036;2024-03-17T04:09:42;3.67;;;2.03;;
19207;SDS011;9737;59.466;18.036;2024-03-17T04:12:09;2.08;;;1.70;;
19207;SDS011;9737;59.466;18.036;2024-03-17T04:14:35;4.68;;;2.13;;
19207;SDS011;9737;59.466;18.036;2024-03-17T04:17:01;4.85;;;2.13;;
19207;SDS011;9737;59.466;18.036;2024-03-17T04:19:27;3.67;;;2.10;;
19207;SDS011;9737;59.466;18.036;2024-03-17T04:21:55;1.98;;;1.88;;
19207;SDS011;9737;59.466;18.036;2024-03-17T04:24:22;5.03;;;2.00;;
19207;SDS011;9737;59.466;18.036;2024-03-17T04:26:48;2.88;;;2.00;;
19207;SDS011;9737;59.466;18.036;2024-03-17T04:29:14;4.53;;;1.95;;
19207;SDS011;9737;59.466;18.036;2024-03-17T04:31:40;4.00;;;1.98;;
19207;SDS011;9737;59.466;18.036;2024-03-17T04:34:07;3.03;;;2.00;;
19207;SDS011;9737;59.466;18.036;2024-03-17T04:36:33;4.82;;;2.00;;
19207;SDS011;9737;59.466;18.036;2024-03-17T04:39:01;2.30;;;2.10;;
19207;SDS011;9737;59.466;18.036;2024-03-17T04:41:28;5.68;;;2.22;;
19207;SDS011;9737;59.466;18.036;2024-03-17T04:43:54;3.70;;;1.92;;
19207;SDS011;9737;59.466;18.036;2024-03-17T04:46:21;7.13;;;2.00;;
19207;SDS011;9737;59.466;18.036;2024-03-17T04:48:47;3.22;;;1.85;;
19207;SDS011;9737;59.466;18.036;2024-03-17T04:51:15;1.98;;;1.80;;
19207;SDS011;9737;59.466;18.036;2024-03-17T04:53:41;2.97;;;2.05;;
19207;SDS011;9737;59.466;18.036;2024-03-17T04:56:09;3.90;;;2.05;;
19207;SDS011;9737;59.466;18.036;2024-03-17T04:58:35;5.35;;;2.40;;
19207;SDS011;9737;59.466;18.036;2024-03-17T05:01:05;5.18;;;2.10;;
19207;SDS011;9737;59.466;18.036;2024-03-17T05:03:32;4.80;;;2.15;;
19207;SDS011;9737;59.466;18.036;2024-03-17T05:05:58;5.53;;;2.30;;
19207;SDS011;9737;59.466;18.036;2024-03-17T05:08:25;5.82;;;2.17;;
19207;SDS011;9737;59.466;18.036;2024-03-17T05:10:55;4.05;;;2.30;;
19207;SDS011;9737;59.466;18.036;2024-03-17T05:13:23;9.85;;;2.33;;
19207;SDS011;9737;59.466;18.036;2024-03-17T05:15:50;4.82;;;1.90;;
19207;SDS011;9737;59.466;18.036;2024-03-17T05:18:16;4.05;;;1.80;;
19207;SDS011;9737;59.466;18.036;2024-03-17T05:20:42;4.88;;;2.22;;
19207;SDS011;9737;59.466;18.036;2024-03-17T05:23:09;6.43;;;2.30;;
19207;SDS011;9737;59.466;18.036;2024-03-17T05:25:35;3.22;;;1.90;;
19207;SDS011;9737;59.466;18.036;2024-03-17T05:28:02;4.97;;;2.10;;
19207;SDS011;9737;59.466;18.036;2024-03-17T05:30:30;4.70;;;2.20;;
19207;SDS011;9737;59.466;18.036;2024-03-17T05:32:56;5.70;;;2.58;;
19207;SDS011;9737;59.466;18.036;2024-03-17T05:35:23;2.55;;;2.20;;
19207;SDS011;9737;59.466;18.036;2024-03-17T05:37:49;9.15;;;3.20;;
19207;SDS011;9737;59.466;18.036;2024-03-17T05:40:15;3.33;;;2.05;;
19207;SDS011;9737;59.466;18.036;2024-03-17T05:42:42;4.63;;;2.17;;
19207;SDS011;9737;59.466;18.036;2024-03-17T05:45:08;3.65;;;2.08;;
19207;SDS011;9737;59.466;18.036;2024-03-17T05:47:36;7.43;;;2.22;;
19207;SDS011;9737;59.466;18.036;2024-03-17T05:50:03;3.50;;;2.15;;
19207;SDS011;9737;59.466;18.036;2024-03-17T05:52:30;5.30;;;2.20;;
19207;SDS011;9737;59.466;18.036;2024-03-17T05:54:56;5.97;;;2.10;;
19207;SDS011;9737;59.466;18.036;2024-03-17T05:57:22;8.45;;;2.15;;
19207;SDS011;9737;59.466;18.036;2024-03-17T05:59:49;5.70;;;2.10;;
19207;SDS011;9737;59.466;18.036;2024-03-17T06:02:15;3.63;;;2.20;;
19207;SDS011;9737;59.466;18.036;2024-03-17T06:04:42;3.97;;;2.05;;
19207;SDS011;9737;59.466;18.036;2024-03-17T06:07:09;4.97;;;2.17;;
19207;SDS011;9737;59.466;18.036;2024-03-17T06:09:35;8.30;;;2.40;;
19207;SDS011;9737;59.466;18.036;2024-03-17T06:12:01;3.33;;;2.10;;
19207;SDS011;9737;59.466;18.036;2024-03-17T06:14:28;6.22;;;2.17;;
19207;SDS011;9737;59.466;18.036;2024-03-17T06:16:54;5.40;;;1.92;;
19207;SDS011;9737;59.466;18.036;2024-03-17T06:19:21;6.95;;;2.30;;
19207;SDS011;9737;59.466;18.036;2024-03-17T06:21:49;4.90;;;2.13;;
19207;SDS011;9737;59.466;18.036;2024-03-17T06:24:15;4.15;;;2.05;;
19207;SDS011;9737;59.466;18.036;2024-03-17T06:26:41;3.53;;;1.83;;
19207;SDS011;9737;59.466;18.036;2024-03-17T06:29:08;2.88;;;2.00;;
19207;SDS011;9737;59.466;18.036;2024-03-17T06:31:34;5.78;;;2.40;;
19207;SDS011;9737;59.466;18.036;2024-03-17T06:34:01;5.53;;;2.33;;
19207;SDS011;9737;59.466;18.036;2024-03-17T06:36:27;3.10;;;1.90;;
19207;SDS011;9737;59.466;18.036;2024-03-17T06:38:55;3.10;;;1.85;;
19207;SDS011;9737;59.466;18.036;2024-03-17T06:41:21;6.22;;;2.10;;
19207;SDS011;9737;59.466;18.036;2024-03-17T06:43:48;6.75;;;2.00;;
19207;SDS011;9737;59.466;18.036;2024-03-17T06:46:14;3.95;;;1.92;;
19207;SDS011;9737;59.466;18.036;2024-03-17T06:48:40;3.80;;;1.92;;
19207;SDS011;9737;59.466;18.036;2024-03-17T06:51:07;3.40;;;2.28;;
19207;SDS011;9737;59.466;18.036;2024-03-17T06:53:33;5.80;;;2.15;;
19207;SDS011;9737;59.466;18.036;2024-03-17T06:56:01;6.97;;;2.33;;
19207;SDS011;9737;59.466;18.036;2024-03-17T06:58:28;4.93;;;2.00;;
19207;SDS011;9737;59.466;18.036;2024-03-17T07:00:54;6.40;;;2.35;;
19207;SDS011;9737;59.466;18.036;2024-03-17T07:03:22;4.72;;;2.22;;
19207;SDS011;9737;59.466;18.036;2024-03-17T07:05:53;4.25;;;2.25;;
19207;SDS011;9737;59.466;18.036;2024-03-17T07:08:21;3.95;;;2.20;;
19207;SDS011;9737;59.466;18.036;2024-03-17T07:10:54;4.47;;;1.98;;
19207;SDS011;9737;59.466;18.036;2024-03-17T07:13:27;7.57;;;2.60;;
19207;SDS011;9737;59.466;18.036;2024-03-17T07:15:54;7.22;;;2.60;;
19207;SDS011;9737;59.466;18.036;2024-03-17T07:18:20;7.85;;;2.40;;
19207;SDS011;9737;59.466;18.036;2024-03-17T07:20:46;7.78;;;2.42;;
19207;SDS011;9737;59.466;18.036;2024-03-17T07:23:13;5.78;;;2.08;;
19207;SDS011;9737;59.466;18.036;2024-03-17T07:25:40;3.28;;;2.00;;
19207;SDS011;9737;59.466;18.036;2024-03-17T07:28:07;8.80;;;2.00;;
19207;SDS011;9737;59.466;18.036;2024-03-17T07:30:35;7.00;;;1.98;;
19207;SDS011;9737;59.466;18.036;2024-03-17T07:33:01;5.55;;;1.98;;
19207;SDS011;9737;59.466;18.036;2024-03-17T07:35:28;6.88;;;2.20;;
19207;SDS011;9737;59.466;18.036;2024-03-17T07:37:54;6.80;;;1.85;;
19207;SDS011;9737;59.466;18.036;2024-03-17T07:40:21;4.93;;;2.00;;
19207;SDS011;9737;59.466;18.036;2024-03-17T07:42:47;9.75;;;2.30;;
19207;SDS011;9737;59.466;18.036;2024-03-17T07:45:13;2.55;;;1.98;;
19207;SDS011;9737;59.466;18.036;2024-03-17T07:47:41;3.40;;;1.90;;
19207;SDS011;9737;59.466;18.036;2024-03-17T07:50:07;6.32;;;2.33;;
19207;SDS011;9737;59.466;18.036;2024-03-17T07:52:34;3.60;;;1.80;;
19207;SDS011;9737;59.466;18.036;2024-03-17T07:55:00;2.45;;;2.00;;
19207;SDS011;9737;59.466;18.036;2024-03-17T07:57:26;4.95;;;2.00;;
19207;SDS011;9737;59.466;18.036;2024-03-17T07:59:52;4.00;;;2.53;;
19207;SDS011;9737;59.466;18.036;2024-03-17T08:02:19;4.40;;;1.90;;
19207;SDS011;9737;59.466;18.036;2024-03-17T08:04:46;4.65;;;2.00;;
19207;SDS011;9737;59.466;18.036;2024-03-17T08:07:13;3.53;;;1.83;;
19207;SDS011;9737;59.466;18.036;2024-03-17T08:09:39;5.15;;;1.85;;
19207;SDS011;9737;59.466;18.036;2024-03-17T08:12:05;3.65;;;1.90;;
19207;SDS011;9737;59.466;18.036;2024-03-17T08:14:32;6.95;;;2.10;;
19207;SDS011;9737;59.466;18.036;2024-03-17T08:16:59;5.07;;;1.50;;
19207;SDS011;9737;59.466;18.036;2024-03-17T08:19:25;7.10;;;2.08;;
19207;SDS011;9737;59.466;18.036;2024-03-17T08:21:53;6.88;;;2.00;;
19207;SDS011;9737;59.466;18.036;2024-03-17T08:24:19;6.13;;;1.70;;
19207;SDS011;9737;59.466;18.036;2024-03-17T08:26:46;10.63;;;1.60;;
19207;SDS011;9737;59.466;18.036;2024-03-17T08:29:12;4.53;;;1.30;;
19207;SDS011;9737;59.466;18.036;2024-03-17T08:31:38;2.13;;;1.30;;
19207;SDS011;9737;59.466;18.036;2024-03-17T08:34:04;5.40;;;1.45;;
19207;SDS011;9737;59.466;18.036;2024-03-17T08:36:31;2.22;;;1.10;;
19207;SDS011;9737;59.466;18.036;2024-03-17T08:38:58;4.30;;;1.60;;
19207;SDS011;9737;59.466;18.036;2024-03-17T08:41:25;6.30;;;1.48;;
19207;SDS011;9737;59.466;18.036;2024-03-17T08:43:51;3.83;;;1.75;;
19207;SDS011;9737;59.466;18.036;2024-03-17T08:46:17;8.02;;;1.50;;
19207;SDS011;9737;59.466;18.036;2024-03-17T08:48:43;1.92;;;1.30;;
19207;SDS011;9737;59.466;18.036;2024-03-17T08:51:10;5.28;;;1.42;;
19207;SDS011;9737;59.466;18.036;2024-03-17T08:53:36;4.18;;;1.38;;
19207;SDS011;9737;59.466;18.036;2024-03-17T08:56:04;2.78;;;1.35;;
19207;SDS011;9737;59.466;18.036;2024-03-17T08:58:31;5.20;;;1.70;;
19207;SDS011;9737;59.466;18.036;2024-03-17T09:00:57;3.17;;;1.40;;
19207;SDS011;9737;59.466;18.036;2024-03-17T09:03:23;4.03;;;1.30;;
19207;SDS011;9737;59.466;18.036;2024-03-17T09:05:50;3.42;;;1.40;;
19207;SDS011;9737;59.466;18.036;2024-03-17T09:08:17;2.90;;;1.20;;
19207;SDS011;9737;59.466;18.036;2024-03-17T09:10:44;5.90;;;1.35;;
19207;SDS011;9737;59.466;18.036;2024-03-17T09:13:13;7.00;;;1.70;;
19207;SDS011;9737;59.466;18.036;2024-03-17T09:15:40;4.38;;;1.60;;
19207;SDS011;9737;59.466;18.036;2024-03-17T09:18:06;2.42;;;1.33;;
19207;SDS011;9737;59.466;18.036;2024-03-17T09:20:33;2.80;;;1.20;;
19207;SDS011;9737;59.466;18.036;2024-03-17T09:22:59;2.10;;;1.20;;
19207;SDS011;9737;59.466;18.036;2024-03-17T09:25:25;6.43;;;1.20;;
19207;SDS011;9737;59.466;18.036;2024-03-17T09:27:52;3.20;;;1.60;;
19207;SDS011;9737;59.466;18.036;2024-03-17T09:30:19;5.53;;;1.52;;
19207;SDS011;9737;59.466;18.036;2024-03-17T09:32:47;9.20;;;3.20;;
19207;SDS011;9737;59.466;18.036;2024-03-17T09:35:16;8.23;;;2.28;;
19207;SDS011;9737;59.466;18.036;2024-03-17T09:37:43;1.40;;;1.02;;
19207;SDS011;9737;59.466;18.036;2024-03-17T09:40:13;4.20;;;1.05;;
19207;SDS011;9737;59.466;18.036;2024-03-17T09:42:40;3.58;;;1.10;;
19207;SDS011;9737;59.466;18.036;2024-03-17T09:45:07;1.73;;;0.98;;
19207;SDS011;9737;59.466;18.036;2024-03-17T09:47:37;8.45;;;1.20;;
19207;SDS011;9737;59.466;18.036;2024-03-17T09:50:03;2.60;;;1.00;;
19207;SDS011;9737;59.466;18.036;2024-03-17T09:52:31;10.15;;;0.90;;
19207;SDS011;9737;59.466;18.036;2024-03-17T09:55:00;5.43;;;1.00;;
19207;SDS011;9737;59.466;18.036;2024-03-17T09:57:34;9.77;;;1.20;;
19207;SDS011;9737;59.466;18.036;2024-03-17T10:00:03;3.20;;;1.33;;
19207;SDS011;9737;59.466;18.036;2024-03-17T10:02:37;3.78;;;1.10;;
19207;SDS011;9737;59.466;18.036;2024-03-17T10:05:13;2.08;;;1.10;;
19207;SDS011;9737;59.466;18.036;2024-03-17T10:07:44;3.55;;;1.33;;
19207;SDS011;9737;59.466;18.036;2024-03-17T10:10:11;2.42;;;1.33;;
19207;SDS011;9737;59.466;18.036;2024-03-17T10:12:38;5.50;;;1.38;;
19207;SDS011;9737;59.466;18.036;2024-03-17T10:15:04;6.85;;;1.20;;
19207;SDS011;9737;59.466;18.036;2024-03-17T10:17:31;4.50;;;1.50;;
19207;SDS011;9737;59.466;18.036;2024-03-17T10:20:12;4.47;;;1.30;;
19207;SDS011;9737;59.466;18.036;2024-03-17T10:22:40;6.70;;;1.38;;
19207;SDS011;9737;59.466;18.036;2024-03-17T10:25:06;3.78;;;1.20;;
19207;SDS011;9737;59.466;18.036;2024-03-17T10:27:35;2.15;;;1.30;;
19207;SDS011;9737;59.466;18.036;2024-03-17T10:30:09;1.70;;;1.30;;
19207;SDS011;9737;59.466;18.036;2024-03-17T10:32:44;2.72;;;1.20;;
19207;SDS011;9737;59.466;18.036;2024-03-17T10:35:24;7.15;;;2.97;;
19207;SDS011;9737;59.466;18.036;2024-03-17T10:37:56;1.98;;;1.23;;
19207;SDS011;9737;59.466;18.036;2024-03-17T10:40:24;9.75;;;1.40;;
19207;SDS011;9737;59.466;18.036;2024-03-17T10:42:51;2.72;;;1.10;;
19207;SDS011;9737;59.466;18.036;2024-03-17T10:45:17;2.25;;;0.90;;
19207;SDS011;9737;59.466;18.036;2024-03-17T10:47:47;3.33;;;1.02;;
19207;SDS011;9737;59.466;18.036;2024-03-17T10:50:16;1.67;;;1.10;;
19207;SDS011;9737;59.466;18.036;2024-03-17T10:52:46;1.40;;;0.90;;
19207;SDS011;9737;59.466;18.036;2024-03-17T10:55:19;3.35;;;0.90;;
19207;SDS011;9737;59.466;18.036;2024-03-17T10:57:46;2.17;;;1.20;;
19207;SDS011;9737;59.466;18.036;2024-03-17T11:00:14;1.70;;;0.90;;
19207;SDS011;9737;59.466;18.036;2024-03-17T11:02:43;3.60;;;1.10;;
19207;SDS011;9737;59.466;18.036;2024-03-17T11:05:11;1.00;;;0.85;;
19207;SDS011;9737;59.466;18.036;2024-03-17T11:07:41;4.35;;;0.75;;
19207;SDS011;9737;59.466;18.036;2024-03-17T11:10:10;3.67;;;1.05;;
19207;SDS011;9737;59.466;18.036;2024-03-17T11:12:41;1.92;;;0.80;;
19207;SDS011;9737;59.466;18.036;2024-03-17T11:21:21;1.25;;;0.80;;
19207;SDS011;9737;59.466;18.036;2024-03-17T11:23:55;2.50;;;0.77;;
19207;SDS011;9737;59.466;18.036;2024-03-17T11:26:27;1.15;;;0.70;;
19207;SDS011;9737;59.466;18.036;2024-03-17T11:28:54;2.70;;;0.90;;
19207;SDS011;9737;59.466;18.036;2024-03-17T11:31:34;2.35;;;0.90;;
19207;SDS011;9737;59.466;18.036;2024-03-17T11:34:05;2.40;;;0.70;;
19207;SDS011;9737;59.466;18.036;2024-03-17T11:36:36;2.10;;;0.90;;
19207;SDS011;9737;59.466;18.036;2024-03-17T11:39:04;2.17;;;1.00;;
19207;SDS011;9737;59.466;18.036;2024-03-17T11:41:39;14.27;;;1.35;;
19207;SDS011;9737;59.466;18.036;2024-03-17T11:44:13;4.85;;;0.82;;
19207;SDS011;9737;59.466;18.036;2024-03-17T11:46:40;8.02;;;1.05;;
19207;SDS011;9737;59.466;18.036;2024-03-17T11:49:06;1.92;;;0.90;;
19207;SDS011;9737;59.466;18.036;2024-03-17T11:51:34;4.82;;;1.15;;
19207;SDS011;9737;59.466;18.036;2024-03-17T11:54:00;0.82;;;0.80;;
19207;SDS011;9737;59.466;18.036;2024-03-17T11:56:27;9.30;;;1.20;;
19207;SDS011;9737;59.466;18.036;2024-03-17T11:59:04;4.00;;;0.93;;
19207;SDS011;9737;59.466;18.036;2024-03-17T12:01:31;2.38;;;0.93;;
19207;SDS011;9737;59.466;18.036;2024-03-17T12:03:57;1.58;;;0.80;;
19207;SDS011;9737;59.466;18.036;2024-03-17T12:06:24;2.55;;;1.10;;
19207;SDS011;9737;59.466;18.036;2024-03-17T12:08:50;4.00;;;1.00;;
19207;SDS011;9737;59.466;18.036;2024-03-17T12:11:17;2.60;;;0.90;;
19207;SDS011;9737;59.466;18.036;2024-03-17T12:13:43;6.63;;;0.90;;
19207;SDS011;9737;59.466;18.036;2024-03-17T12:16:12;8.07;;;1.10;;
19207;SDS011;9737;59.466;18.036;2024-03-17T12:18:38;24.35;;;3.25;;
19207;SDS011;9737;59.466;18.036;2024-03-17T12:21:04;3.95;;;1.00;;
19207;SDS011;9737;59.466;18.036;2024-03-17T12:23:31;5.45;;;1.08;;
19207;SDS011;9737;59.466;18.036;2024-03-17T12:25:57;6.82;;;0.93;;
19207;SDS011;9737;59.466;18.036;2024-03-17T12:28:26;3.53;;;1.00;;
19207;SDS011;9737;59.466;18.036;2024-03-17T12:30:52;1.83;;;0.80;;
19207;SDS011;9737;59.466;18.036;2024-03-17T12:33:20;4.63;;;1.00;;
19207;SDS011;9737;59.466;18.036;2024-03-17T12:35:47;7.85;;;1.33;;
19207;SDS011;9737;59.466;18.036;2024-03-17T12:38:20;1.85;;;0.90;;
19207;SDS011;9737;59.466;18.036;2024-03-17T12:40:47;1.88;;;1.00;;
19207;SDS011;9737;59.466;18.036;2024-03-17T12:43:13;18.52;;;1.60;;
19207;SDS011;9737;59.466;18.036;2024-03-17T12:45:39;3.10;;;0.93;;
19207;SDS011;9737;59.466;18.036;2024-03-17T12:48:10;1.88;;;0.88;;
19207;SDS011;9737;59.466;18.036;2024-03-17T12:50:45;3.72;;;1.05;;
19207;SDS011;9737;59.466;18.036;2024-03-17T12:53:15;3.25;;;1.35;;
19207;SDS011;9737;59.466;18.036;2024-03-17T12:55:42;3.53;;;0.80;;
19207;SDS011;9737;59.466;18.036;2024-03-17T12:58:18;4.38;;;1.15;;
19207;SDS011;9737;59.466;18.036;2024-03-17T13:00:47;2.20;;;1.10;;
19207;SDS011;9737;59.466;18.036;2024-03-17T13:03:23;6.93;;;1.02;;
19207;SDS011;9737;59.466;18.036;2024-03-17T13:05:54;3.47;;;0.80;;
19207;SDS011;9737;59.466;18.036;2024-03-17T13:08:23;6.32;;;1.20;;
19207;SDS011;9737;59.466;18.036;2024-03-17T13:11:01;5.07;;;1.10;;
19207;SDS011;9737;59.466;18.036;2024-03-17T13:13:49;37.17;;;2.47;;
19207;SDS011;9737;59.466;18.036;2024-03-17T13:16:41;3.25;;;0.80;;
19207;SDS011;9737;59.466;18.036;2024-03-17T13:19:08;3.45;;;1.00;;
19207;SDS011;9737;59.466;18.036;2024-03-17T13:21:39;3.78;;;1.00;;
19207;SDS011;9737;59.466;18.036;2024-03-17T13:24:10;12.07;;;1.38;;
19207;SDS011;9737;59.466;18.036;2024-03-17T13:26:37;5.30;;;1.05;;
19207;SDS011;9737;59.466;18.036;2024-03-17T13:29:03;4.35;;;0.85;;
19207;SDS011;9737;59.466;18.036;2024-03-17T13:31:32;5.43;;;1.30;;
19207;SDS011;9737;59.466;18.036;2024-03-17T13:33:59;4.07;;;1.10;;
19207;SDS011;9737;59.466;18.036;2024-03-17T13:36:25;4.50;;;0.93;;
19207;SDS011;9737;59.466;18.036;2024-03-17T13:38:53;13.88;;;1.38;;
19207;SDS011;9737;59.466;18.036;2024-03-17T13:41:20;1.45;;;0.90;;
19207;SDS011;9737;59.466;18.036;2024-03-17T13:43:46;21.75;;;1.85;;
19207;SDS011;9737;59.466;18.036;2024-03-17T13:46:12;7.47;;;0.88;;
19207;SDS011;9737;59.466;18.036;2024-03-17T13:48:39;28.10;;;1.70;;
19207;SDS011;9737;59.466;18.036;2024-03-17T13:51:06;4.43;;;0.88;;
19207;SDS011;9737;59.466;18.036;2024-03-17T13:53:34;49.05;;;3.13;;
19207;SDS011;9737;59.466;18.036;2024-03-17T13:56:01;12.65;;;1.27;;
19207;SDS011;9737;59.466;18.036;2024-03-17T13:58:28;3.08;;;0.80;;
19207;SDS011;9737;59.466;18.036;2024-03-17T14:00:54;11.35;;;1.25;;
19207;SDS011;9737;59.466;18.036;2024-03-17T14:03:21;1.88;;;1.08;;
19207;SDS011;9737;59.466;18.036;2024-03-17T14:05:51;2.80;;;0.88;;
19207;SDS011;9737;59.466;18.036;2024-03-17T14:08:17;5.47;;;0.93;;
19207;SDS011;9737;59.466;18.036;2024-03-17T14:10:44;3.40;;;0.85;;
19207;SDS011;9737;59.466;18.036;2024-03-17T14:13:12;3.60;;;0.90;;
19207;SDS011;9737;59.466;18.036;2024-03-17T14:15:38;6.00;;;1.00;;
19207;SDS011;9737;59.466;18.036;2024-03-17T14:18:04;3.28;;;0.90;;
19207;SDS011;9737;59.466;18.036;2024-03-17T14:20:31;1.27;;;0.73;;
19207;SDS011;9737;59.466;18.036;2024-03-17T14:22:57;2.03;;;0.90;;
19207;SDS011;9737;59.466;18.036;2024-03-17T14:25:26;5.95;;;1.00;;
19207;SDS011;9737;59.466;18.036;2024-03-17T14:27:55;6.38;;;1.10;;
19207;SDS011;9737;59.466;18.036;2024-03-17T14:30:22;2.40;;;0.80;;
19207;SDS011;9737;59.466;18.036;2024-03-17T14:32:49;1.98;;;1.00;;
19207;SDS011;9737;59.466;18.036;2024-03-17T14:35:15;2.42;;;1.00;;
19207;SDS011;9737;59.466;18.036;2024-03-17T14:37:43;1.17;;;0.80;;
19207;SDS011;9737;59.466;18.036;2024-03-17T14:40:10;4.85;;;1.02;;
19207;SDS011;9737;59.466;18.036;2024-03-17T14:42:38;9.13;;;1.08;;
19207;SDS011;9737;59.466;18.036;2024-03-17T14:45:04;2.53;;;1.00;;
19207;SDS011;9737;59.466;18.036;2024-03-17T14:47:35;4.10;;;1.20;;
19207;SDS011;9737;59.466;18.036;2024-03-17T14:50:02;2.67;;;0.90;;
19207;SDS011;9737;59.466;18.036;2024-03-17T14:52:28;3.63;;;0.95;;
19207;SDS011;9737;59.466;18.036;2024-03-17T14:54:55;2.85;;;0.98;;
19207;SDS011;9737;59.466;18.036;2024-03-17T14:57:21;2.35;;;1.10;;